Batumi International Airport
UGSB : rendu visible

Aérodrome :











RETROUVEZ-NOUS SUR...

 
LOGIN :

S'inscrire | Disclaimer

   EN    FR    IT 

 









Légende :    VFR   VFR Marginal   IFR   IFR Intensif   IFR Très Intensif
Visi : 
Plafond : 
>= 8 km
>= 3000ft
5 à 8 km
1000 à 3000 ft
1500m à 5 km
500 à 1000 ft
800 à 1500m
200 à 500 ft
< 800m
< 200 ft
Symboles :   Orages  Brouillard  Fortes neiges  Fortes précipitations  Vent > 20 kt







- Altitude de l'aérodrome : 105 ft
- Code IATA : BUS


UGSB - Batumi International

DERNIER METAR :
  • 180130Z AUTO 14017KT 9999 BKN100 11/08 Q1028 R13/CLRD70 NOSIG

METARs EXPIRÉS :
  • 180100Z 14017KT CAVOK 11/09 Q1028 R13/CLRD70 NOSIG
  • 180030Z 13017KT CAVOK 11/09 Q1028 R13/CLRD70 NOSIG
  • 180000Z 14017KT CAVOK 11/09 Q1029 R13/70D NOSIG
  • 172330Z 13018KT CAVOK 12/09 Q1029 R13/CLRD70 NOSIG
  • 172300Z 14017KT CAVOK 12/09 Q1029 R13/////// NOSIG

TAF TAF UGSB
Valide du 18 à 00h jusqu'au 19 à 00h UTC


172300Z 1800/1824 13020KT CAVOK TX20/1812Z TN11/1801Z
BECMG 1806/1808 01010KT
BECMG 1815/1818 13014KT
FIR UGGG / Asie



MET'MAP, la Météo Aéronautique d'un coup d'oeil ! - Copyright ORBIFLY Décembre 2007 - Disclaimer

ORBIFLY MET'MAP TEAM :

Programmation & Développement : Alexandra Zaïnal
Conception & Développement : Baudouin d'Aumeries
Co-Programmation & Développement : Marc-Olivier Méhu
Soutien technique & logistique : Manuel Goepfert

Contact : metmap@orbifly.com




SOURCES & CREDITS :

   NOAA       Earth
Advisory